Geneva, Kentucky
Current Conditions -  °F | °C
As of 10:15 PM on Monday 22 Dec 2014 (Local Time) from KEHR Reporting Station
Overcast Overcast  
Wind Chill: 52°   Ceiling: 3800
Heat Index: 52°   Visibility: 10mi
Dew Point: 48°   Wind: 14mph
Humidity: 88%   Direction: 170°S
Pressure: 29.64"   Gusts: 17mph
Location:  37.756°N, 87.7065°W
Report Text: KEHR 230415Z AUTO 17012G15KT 10SM FEW014 BKN038 OVC060 11/09 A2964 RMK AO1
Loading
Personal Weather Stations






























Interactive Weather Map New forecast layout! Learn more

10-Day Weather Forecast

Advertisements
Track Severe Weather on mobile